Time;durP1;ratioP1;P1;durP2;ratioP2;P2;SDS_P1;SDS_P2;PMS_P1;PMS_P2;Temp;Humidity;BMP_temperature;BMP_pressure;BME280_temperature;BME280_humidity;BME280_pressure;Samples;Min_cycle;Max_cycle;Signal;HPM_P1;HPM_P2
2021/03/04 00:00:47;;;;;;;;;;;20.00;54.30;;;;;;4869681;29;19928;-93
2021/03/04 00:03:13;;;;;;;;;;;20.00;54.30;;;;;;4882934;29;20018;-90
2021/03/04 00:05:40;;;;;;;;;;;20.00;54.30;;;;;;4874621;29;19927;-90
2021/03/04 00:08:06;;;;;;;;;;;20.00;54.30;;;;;;4879403;29;19963;-93
2021/03/04 00:10:35;;;;;;;;;;;20.00;54.20;;;;;;4868703;29;19927;-93
2021/03/04 00:13:05;;;;;;;;;;;20.00;54.20;;;;;;4882134;29;19927;-91
2021/03/04 00:15:33;;;;;;;;;;;20.00;54.30;;;;;;4874753;29;20018;-92
2021/03/04 00:17:59;;;;;;;;;;;20.00;54.20;;;;;;4872914;29;19928;-93
2021/03/04 00:20:27;;;;;;;;;;;19.90;54.20;;;;;;4876877;29;19936;-91
2021/03/04 00:22:53;;;;;;;;;;;20.00;54.30;;;;;;4881208;29;19942;-91
2021/03/04 00:25:20;;;;;;;;;;;19.90;54.20;;;;;;4894253;29;19951;-92
2021/03/04 00:27:49;;;;;;;;;;;19.90;54.30;;;;;;4882074;29;20014;-92
2021/03/04 00:30:16;;;;;;;;;;;19.90;54.30;;;;;;4880529;29;20010;-91
2021/03/04 00:32:45;;;;;;;;;;;19.90;54.20;;;;;;4879373;29;19935;-91
2021/03/04 00:35:12;;;;;;;;;;;19.90;54.30;;;;;;4879238;29;19962;-91
2021/03/04 00:37:39;;;;;;;;;;;19.90;54.20;;;;;;4880410;29;19927;-92
2021/03/04 00:40:09;;;;;;;;;;;19.90;54.20;;;;;;4888052;29;19990;-91
2021/03/04 00:42:36;;;;;;;;;;;19.80;54.20;;;;;;4895786;29;19935;-92
2021/03/04 00:45:08;;;;;;;;;;;19.80;54.20;;;;;;4899920;29;19934;-92
2021/03/04 00:47:34;;;;;;;;;;;19.90;54.80;;;;;;4890069;29;19935;-90
2021/03/04 00:50:01;;;;;;;;;;;19.80;54.10;;;;;;4899568;29;19934;-92
2021/03/04 00:52:27;;;;;;;;;;;19.90;54.20;;;;;;4899376;29;19924;-92
2021/03/04 00:54:54;;;;;;;;;;;19.80;54.10;;;;;;4904307;29;19999;-92
2021/03/04 00:57:21;;;;;;;;;;;19.80;54.20;;;;;;4906516;29;19927;-94
2021/03/04 00:59:48;;;;;;;;;;;19.80;54.20;;;;;;4898127;29;19970;-91
2021/03/04 01:02:14;;;;;;;;;;;19.80;54.20;;;;;;4898266;29;20381;-91
2021/03/04 01:04:41;;;;;;;;;;;19.80;54.10;;;;;;4900339;29;19975;-91
2021/03/04 01:07:07;;;;;;;;;;;19.80;54.20;;;;;;4895513;29;19927;-89
2021/03/04 01:09:33;;;;;;;;;;;19.80;54.20;;;;;;4895139;29;19935;-90
2021/03/04 01:12:00;;;;;;;;;;;19.70;54.10;;;;;;4894851;29;19923;-89
2021/03/04 01:14:26;;;;;;;;;;;19.80;54.20;;;;;;4891598;29;20383;-91
2021/03/04 01:16:52;;;;;;;;;;;19.70;54.10;;;;;;4897521;29;19934;-89
2021/03/04 01:19:19;;;;;;;;;;;19.70;54.20;;;;;;4891835;29;20403;-90
2021/03/04 01:21:45;;;;;;;;;;;19.70;54.10;;;;;;4896652;29;19927;-90
2021/03/04 01:24:11;;;;;;;;;;;19.70;54.00;;;;;;4898660;29;19963;-91
2021/03/04 01:26:38;;;;;;;;;;;19.70;54.10;;;;;;4900059;29;19934;-91
2021/03/04 01:29:04;;;;;;;;;;;19.70;54.00;;;;;;4894654;29;19936;-91
2021/03/04 01:31:30;;;;;;;;;;;19.70;54.70;;;;;;4896872;29;19954;-91
2021/03/04 01:33:57;;;;;;;;;;;19.70;54.10;;;;;;4896975;29;20026;-91
2021/03/04 01:36:23;;;;;;;;;;;19.70;54.00;;;;;;4897220;29;20112;-90
2021/03/04 01:38:49;;;;;;;;;;;19.70;54.00;;;;;;4888431;29;19935;-91
2021/03/04 01:41:16;;;;;;;;;;;19.70;54.00;;;;;;4894365;29;19928;-91
2021/03/04 01:43:42;;;;;;;;;;;19.60;54.00;;;;;;4889201;29;19970;-92
2021/03/04 01:46:08;;;;;;;;;;;19.70;54.00;;;;;;4895127;29;19928;-90
2021/03/04 01:48:48;;;;;;;;;;;19.60;54.50;;;;;;4885173;29;20822;-90
2021/03/04 01:51:15;;;;;;;;;;;19.60;53.90;;;;;;4892134;29;19927;-88
2021/03/04 01:53:41;;;;;;;;;;;19.60;53.90;;;;;;4892266;29;19950;-88
2021/03/04 01:56:09;;;;;;;;;;;19.60;54.00;;;;;;4891467;29;19935;-89
2021/03/04 01:58:45;;;;;;;;;;;19.60;54.00;;;;;;4895050;29;19927;-91
2021/03/04 02:01:12;;;;;;;;;;;19.60;54.00;;;;;;4878137;29;19935;-91
2021/03/04 02:03:38;;;;;;;;;;;19.60;54.00;;;;;;4891669;29;19928;-91
2021/03/04 02:06:05;;;;;;;;;;;19.60;54.00;;;;;;4887639;29;20014;-91
2021/03/04 02:08:37;;;;;;;;;;;19.60;54.00;;;;;;4896784;29;19931;-90
2021/03/04 02:11:10;;;;;;;;;;;19.50;54.00;;;;;;4888810;29;19931;-90
2021/03/04 02:13:39;;;;;;;;;;;19.60;54.00;;;;;;4908644;29;20328;-91
2021/03/04 02:16:11;;;;;;;;;;;19.50;53.90;;;;;;4889004;29;19934;-90
2021/03/04 02:18:42;;;;;;;;;;;19.50;53.90;;;;;;4902399;29;19971;-89
2021/03/04 02:21:18;;;;;;;;;;;19.50;54.00;;;;;;4893465;29;19943;-90
2021/03/04 02:23:53;;;;;;;;;;;19.50;53.90;;;;;;4896917;29;20173;-89
2021/03/04 02:26:23;;;;;;;;;;;19.60;54.00;;;;;;4892629;29;19935;-90
2021/03/04 02:28:52;;;;;;;;;;;19.50;53.90;;;;;;4912737;29;20010;-91
2021/03/04 02:31:19;;;;;;;;;;;19.50;53.90;;;;;;4894127;29;19927;-92
2021/03/04 02:33:46;;;;;;;;;;;19.50;53.90;;;;;;4899439;29;19942;-93
2021/03/04 02:36:13;;;;;;;;;;;19.50;54.50;;;;;;4896884;29;20021;-93
2021/03/04 02:38:39;;;;;;;;;;;19.50;53.90;;;;;;4899258;29;19943;-93
2021/03/04 02:41:06;;;;;;;;;;;19.50;53.90;;;;;;4896920;29;19927;-91
2021/03/04 02:43:33;;;;;;;;;;;19.50;53.90;;;;;;4901585;29;19991;-92
2021/03/04 02:46:00;;;;;;;;;;;19.50;53.90;;;;;;4896346;29;19945;-89
2021/03/04 02:48:27;;;;;;;;;;;19.50;53.90;;;;;;4897199;29;19974;-90
2021/03/04 02:50:55;;;;;;;;;;;19.50;53.80;;;;;;4895601;29;20419;-90
2021/03/04 02:53:22;;;;;;;;;;;19.50;53.80;;;;;;4897854;29;19927;-90
2021/03/04 02:55:49;;;;;;;;;;;19.50;53.80;;;;;;4895887;29;19967;-90
2021/03/04 02:58:17;;;;;;;;;;;19.50;53.80;;;;;;4894901;29;19949;-94
2021/03/04 03:00:43;;;;;;;;;;;19.50;53.80;;;;;;4901949;29;19984;-93
2021/03/04 03:03:11;;;;;;;;;;;19.40;53.80;;;;;;4897800;29;19941;-94
2021/03/04 03:05:40;;;;;;;;;;;19.40;53.90;;;;;;4892672;29;21120;-94
2021/03/04 03:08:08;;;;;;;;;;;19.40;53.80;;;;;;4899443;29;19963;-91
2021/03/04 03:10:35;;;;;;;;;;;19.40;53.90;;;;;;4898468;29;19946;-91
2021/03/04 03:13:02;;;;;;;;;;;19.40;53.80;;;;;;4897868;29;19927;-93
2021/03/04 03:15:29;;;;;;;;;;;19.40;53.90;;;;;;4894660;29;19915;-93
2021/03/04 03:17:55;;;;;;;;;;;19.40;53.80;;;;;;4887045;29;19986;-93
2021/03/04 03:20:25;;;;;;;;;;;19.40;53.90;;;;;;4891721;29;19927;-93
2021/03/04 03:22:53;;;;;;;;;;;19.40;53.90;;;;;;4890228;29;20026;-94
2021/03/04 03:25:20;;;;;;;;;;;19.40;53.90;;;;;;4899969;29;19942;-91
2021/03/04 03:27:47;;;;;;;;;;;19.40;53.90;;;;;;4895200;29;19934;-90
2021/03/04 03:30:19;;;;;;;;;;;19.40;54.40;;;;;;4894872;29;19934;-93
2021/03/04 03:32:50;;;;;;;;;;;19.40;53.80;;;;;;4896640;29;19934;-93
2021/03/04 03:35:17;;;;;;;;;;;19.40;53.90;;;;;;4918281;29;19951;-94
2021/03/04 03:37:45;;;;;;;;;;;19.40;53.80;;;;;;4875466;29;19942;-94
2021/03/04 03:40:14;;;;;;;;;;;19.40;53.80;;;;;;4901699;29;19926;-93
2021/03/04 03:42:41;;;;;;;;;;;19.40;53.90;;;;;;4903333;29;20824;-94
2021/03/04 03:45:10;;;;;;;;;;;19.30;53.80;;;;;;4899502;29;20410;-93
2021/03/04 03:47:37;;;;;;;;;;;19.40;53.80;;;;;;4890555;29;20018;-93
2021/03/04 03:50:20;;;;;;;;;;;19.30;53.70;;;;;;4899443;29;20014;-93
2021/03/04 03:52:50;;;;;;;;;;;19.30;53.70;;;;;;4900821;29;19942;-93
2021/03/04 03:55:17;;;;;;;;;;;19.30;53.70;;;;;;4895544;29;19935;-93
2021/03/04 03:57:54;;;;;;;;;;;19.30;53.70;;;;;;4905682;28;19926;-93
2021/03/04 04:00:24;;;;;;;;;;;19.30;53.80;;;;;;4879521;29;19926;-93
2021/03/04 04:03:15;;;;;;;;;;;19.30;53.90;;;;;;4880028;29;19937;-93
2021/03/04 04:05:47;;;;;;;;;;;19.30;53.70;;;;;;4875368;29;19931;-93
2021/03/04 04:08:15;;;;;;;;;;;19.30;53.70;;;;;;4912652;29;20009;-93
2021/03/04 04:10:45;;;;;;;;;;;19.30;53.70;;;;;;4905524;29;19982;-93
2021/03/04 04:13:22;;;;;;;;;;;19.30;53.70;;;;;;4924336;29;19927;-93
2021/03/04 04:15:49;;;;;;;;;;;19.30;53.70;;;;;;4907934;29;19946;-94
2021/03/04 04:18:16;;;;;;;;;;;19.20;53.60;;;;;;4906396;29;20459;-93
2021/03/04 04:20:50;;;;;;;;;;;19.30;53.70;;;;;;4884863;29;19931;-94
2021/03/04 04:23:17;;;;;;;;;;;19.20;53.60;;;;;;4915908;29;19927;-91
2021/03/04 04:25:51;;;;;;;;;;;19.20;53.60;;;;;;4900609;29;19915;-93
2021/03/04 04:28:21;;;;;;;;;;;19.20;53.60;;;;;;4901407;29;20419;-93
2021/03/04 04:30:47;;;;;;;;;;;19.20;53.50;;;;;;4897830;29;19967;-93
2021/03/04 04:33:13;;;;;;;;;;;19.20;53.60;;;;;;4923707;29;20255;-92
2021/03/04 04:35:40;;;;;;;;;;;19.30;53.70;;;;;;4925901;29;19951;-92
2021/03/04 04:38:08;;;;;;;;;;;19.20;53.60;;;;;;4904300;29;19947;-93
2021/03/04 04:40:34;;;;;;;;;;;19.20;53.60;;;;;;4915883;29;19935;-93
2021/03/04 04:43:00;;;;;;;;;;;19.20;53.60;;;;;;4920576;29;19927;-92
2021/03/04 04:45:27;;;;;;;;;;;19.20;53.60;;;;;;4907334;29;19973;-92
2021/03/04 04:47:59;;;;;;;;;;;19.20;53.50;;;;;;4921194;29;19947;-94
2021/03/04 04:50:25;;;;;;;;;;;19.20;53.60;;;;;;4916590;29;19952;-93
2021/03/04 04:52:52;;;;;;;;;;;19.20;53.60;;;;;;4897092;29;19927;-92
2021/03/04 04:55:18;;;;;;;;;;;19.20;53.60;;;;;;4900229;29;20013;-92
2021/03/04 04:57:44;;;;;;;;;;;19.20;53.60;;;;;;4895319;29;20021;-93
2021/03/04 05:00:11;;;;;;;;;;;19.20;53.60;;;;;;4882259;29;20488;-93
2021/03/04 05:02:37;;;;;;;;;;;19.20;53.60;;;;;;4896675;29;20030;-93
2021/03/04 05:05:05;;;;;;;;;;;19.20;53.60;;;;;;4899644;29;19932;-93
2021/03/04 05:07:37;;;;;;;;;;;19.20;53.60;;;;;;4896024;29;20023;-93
2021/03/04 05:10:05;;;;;;;;;;;19.10;53.50;;;;;;4913306;29;20049;-93
2021/03/04 05:12:31;;;;;;;;;;;19.10;53.50;;;;;;4913334;29;19935;-93
2021/03/04 05:14:58;;;;;;;;;;;19.10;53.50;;;;;;4897846;29;20021;-93
2021/03/04 05:17:24;;;;;;;;;;;19.10;53.60;;;;;;4894822;29;20327;-93
2021/03/04 05:19:51;;;;;;;;;;;19.10;53.50;;;;;;4879590;29;19927;-93
2021/03/04 05:22:18;;;;;;;;;;;19.20;53.60;;;;;;4896900;29;19934;-92
2021/03/04 05:24:44;;;;;;;;;;;19.10;53.50;;;;;;4903863;29;20408;-92
2021/03/04 05:27:10;;;;;;;;;;;19.10;53.50;;;;;;4895816;29;20770;-92
2021/03/04 05:29:36;;;;;;;;;;;19.10;53.50;;;;;;4899720;29;19959;-92
2021/03/04 05:32:03;;;;;;;;;;;19.10;53.50;;;;;;4890062;29;19950;-91
2021/03/04 05:34:30;;;;;;;;;;;19.10;53.50;;;;;;4890293;29;19928;-91
2021/03/04 05:36:56;;;;;;;;;;;19.10;53.50;;;;;;4896151;29;19978;-90
2021/03/04 05:39:24;;;;;;;;;;;19.10;53.50;;;;;;4905459;29;19957;-88
2021/03/04 05:41:50;;;;;;;;;;;19.10;53.50;;;;;;4887713;29;20018;-89
2021/03/04 05:44:18;;;;;;;;;;;19.10;53.50;;;;;;4892209;29;19935;-87
2021/03/04 05:46:45;;;;;;;;;;;19.10;53.50;;;;;;4900480;29;19991;-83
2021/03/04 05:49:12;;;;;;;;;;;19.10;53.50;;;;;;4897846;29;20423;-87
2021/03/04 05:51:59;;;;;;;;;;;19.00;53.40;;;;;;4900910;29;19937;-91
2021/03/04 05:54:29;;;;;;;;;;;19.10;53.50;;;;;;4907390;29;19931;-91
2021/03/04 05:56:56;;;;;;;;;;;19.10;53.50;;;;;;4915397;29;20443;-91
2021/03/04 05:59:30;;;;;;;;;;;19.10;53.50;;;;;;4894738;29;19923;-90
2021/03/04 06:01:57;;;;;;;;;;;19.10;53.50;;;;;;4900960;29;19931;-94
2021/03/04 06:04:25;;;;;;;;;;;19.00;53.40;;;;;;4902253;29;19963;-96
2021/03/04 06:06:53;;;;;;;;;;;19.10;53.40;;;;;;4881751;29;20354;-96
2021/03/04 06:09:35;;;;;;;;;;;19.00;53.30;;;;;;2859288;23;19939;-92
2021/03/04 06:12:27;;;;;;;;;;;19.00;53.40;;;;;;4918754;29;19935;-96
2021/03/04 06:17:37;;;;;;;;;;;19.00;53.40;;;;;;5295603;23;19939;-96
2021/03/04 06:20:06;;;;;;;;;;;19.10;53.40;;;;;;5028458;23;19952;-96
2021/03/04 06:25:48;;;;;;;;;;;19.00;53.30;;;;;;4889843;29;19934;-90
2021/03/04 06:28:15;;;;;;;;;;;19.00;53.30;;;;;;4883276;29;19967;-92
2021/03/04 06:30:42;;;;;;;;;;;19.00;53.30;;;;;;4880529;29;21459;-93
2021/03/04 06:33:09;;;;;;;;;;;19.00;53.20;;;;;;4890022;29;19935;-95
2021/03/04 06:35:38;;;;;;;;;;;19.00;53.30;;;;;;4878040;29;20269;-90
2021/03/04 06:38:12;;;;;;;;;;;19.00;53.70;;;;;;4884040;29;19935;-90
2021/03/04 06:40:42;;;;;;;;;;;19.00;54.00;;;;;;4877565;29;19934;-95
2021/03/04 06:43:22;;;;;;;;;;;19.00;54.10;;;;;;4882253;29;19927;-95
2021/03/04 06:45:48;;;;;;;;;;;19.00;54.20;;;;;;4856673;29;20486;-94
2021/03/04 06:48:26;;;;;;;;;;;19.00;54.10;;;;;;4902396;29;20027;-95
2021/03/04 06:51:00;;;;;;;;;;;19.00;54.60;;;;;;4883921;29;19995;-96
2021/03/04 06:53:30;;;;;;;;;;;19.00;54.00;;;;;;4898526;29;19974;-96
2021/03/04 06:56:00;;;;;;;;;;;19.00;53.90;;;;;;4874470;29;19934;-96
2021/03/04 07:01:11;;;;;;;;;;;19.00;53.70;;;;;;4875329;29;22199;-95
2021/03/04 07:11:24;;;;;;;;;;;18.90;53.50;;;;;;4845513;29;20053;-86
2021/03/04 07:13:51;;;;;;;;;;;19.00;53.50;;;;;;4866325;29;19998;-90
2021/03/04 07:16:18;;;;;;;;;;;19.00;53.40;;;;;;4872803;29;20380;-91
2021/03/04 07:18:45;;;;;;;;;;;18.90;53.40;;;;;;4879533;29;19946;-91
2021/03/04 07:21:14;;;;;;;;;;;18.90;53.60;;;;;;4869245;29;20370;-95
2021/03/04 07:23:41;;;;;;;;;;;18.90;53.60;;;;;;4876415;29;20018;-92
2021/03/04 07:26:08;;;;;;;;;;;19.00;53.70;;;;;;4878499;29;19935;-90
2021/03/04 07:28:35;;;;;;;;;;;18.90;53.70;;;;;;4850012;29;19977;-87
2021/03/04 07:31:01;;;;;;;;;;;18.90;54.40;;;;;;4891928;29;19939;-87
2021/03/04 07:33:29;;;;;;;;;;;18.90;54.90;;;;;;4866399;29;19935;-88
2021/03/04 07:36:04;;;;;;;;;;;19.10;56.00;;;;;;4876027;29;19963;-87
2021/03/04 07:38:30;;;;;;;;;;;19.20;56.30;;;;;;4868606;29;19934;-90
2021/03/04 07:41:05;;;;;;;;;;;19.20;56.30;;;;;;4876910;29;20038;-87
2021/03/04 07:43:47;;;;;;;;;;;19.30;56.40;;;;;;4870968;29;19979;-87
2021/03/04 07:46:25;;;;;;;;;;;19.30;56.30;;;;;;4876828;29;21353;-88
2021/03/04 07:48:52;;;;;;;;;;;19.40;56.30;;;;;;4870619;29;19974;-88
2021/03/04 07:51:19;;;;;;;;;;;19.40;56.20;;;;;;4875167;29;19936;-90
2021/03/04 07:53:45;;;;;;;;;;;19.50;56.20;;;;;;4870026;29;20304;-87
2021/03/04 07:56:21;;;;;;;;;;;19.50;55.90;;;;;;4873904;29;20014;-90
2021/03/04 07:58:47;;;;;;;;;;;19.60;55.80;;;;;;4868661;29;21146;-87
2021/03/04 08:01:14;;;;;;;;;;;19.60;55.90;;;;;;4907102;29;19927;-86
2021/03/04 08:03:47;;;;;;;;;;;19.70;56.10;;;;;;4902425;29;20423;-87
2021/03/04 08:06:14;;;;;;;;;;;19.80;55.90;;;;;;4886420;29;19935;-89
2021/03/04 08:08:41;;;;;;;;;;;19.90;56.00;;;;;;4885928;29;19967;-89
2021/03/04 08:11:08;;;;;;;;;;;19.90;56.10;;;;;;4892784;29;19935;-85
2021/03/04 08:13:40;;;;;;;;;;;20.00;55.90;;;;;;4898372;29;20711;-87
2021/03/04 08:16:13;;;;;;;;;;;20.10;55.80;;;;;;4887447;29;19936;-87
2021/03/04 08:18:52;;;;;;;;;;;20.10;55.70;;;;;;4884245;29;20125;-88
2021/03/04 08:21:18;;;;;;;;;;;20.10;55.40;;;;;;4903034;29;21323;-90
2021/03/04 08:23:50;;;;;;;;;;;20.20;55.30;;;;;;4891554;29;20003;-92
2021/03/04 08:26:22;;;;;;;;;;;20.30;55.40;;;;;;4892316;29;20011;-87
2021/03/04 08:28:49;;;;;;;;;;;20.30;55.20;;;;;;4905958;29;20026;-85
2021/03/04 08:31:16;;;;;;;;;;;20.40;55.30;;;;;;4904121;29;20342;-85
2021/03/04 08:33:52;;;;;;;;;;;20.40;55.00;;;;;;4890541;29;19933;-85
2021/03/04 08:36:18;;;;;;;;;;;20.50;55.60;;;;;;4901544;29;20638;-84
2021/03/04 08:38:45;;;;;;;;;;;20.60;54.50;;;;;;4906999;29;19931;-83
2021/03/04 08:41:18;;;;;;;;;;;20.60;54.70;;;;;;4900498;29;20152;-87
2021/03/04 08:43:44;;;;;;;;;;;20.60;54.50;;;;;;4884931;29;19927;-87
2021/03/04 08:46:11;;;;;;;;;;;20.70;54.20;;;;;;4882294;29;20414;-84
2021/03/04 08:48:44;;;;;;;;;;;20.70;54.10;;;;;;4905564;29;19927;-84
2021/03/04 08:51:14;;;;;;;;;;;20.80;54.10;;;;;;4900915;29;20411;-84
2021/03/04 08:53:40;;;;;;;;;;;20.80;54.10;;;;;;4905483;29;19931;-88
2021/03/04 08:56:10;;;;;;;;;;;20.80;54.00;;;;;;4902724;29;19955;-84
2021/03/04 08:58:40;;;;;;;;;;;20.80;52.50;;;;;;4898042;29;20722;-87
2021/03/04 09:01:06;;;;;;;;;;;20.70;52.20;;;;;;4870721;29;20713;-84
2021/03/04 09:03:39;;;;;;;;;;;20.60;53.60;;;;;;4884934;29;19978;-84
2021/03/04 09:06:08;;;;;;;;;;;20.70;54.10;;;;;;4876026;29;19939;-85
2021/03/04 09:08:35;;;;;;;;;;;20.80;54.30;;;;;;4885551;29;19943;-84
2021/03/04 09:11:02;;;;;;;;;;;20.80;54.60;;;;;;4881840;29;19973;-85
2021/03/04 09:13:28;;;;;;;;;;;20.90;54.50;;;;;;4885828;29;19936;-86
2021/03/04 09:15:57;;;;;;;;;;;20.90;54.20;;;;;;4856579;29;19928;-86
2021/03/04 09:18:24;;;;;;;;;;;21.00;54.50;;;;;;4876824;29;19928;-86
2021/03/04 09:20:53;;;;;;;;;;;21.00;54.00;;;;;;4870768;29;19963;-85
2021/03/04 09:23:20;;;;;;;;;;;21.00;53.70;;;;;;4881281;29;20014;-81
2021/03/04 09:25:47;;;;;;;;;;;21.00;54.10;;;;;;4885302;29;20381;-82
2021/03/04 09:28:14;;;;;;;;;;;21.00;54.20;;;;;;4858329;29;20427;-81
2021/03/04 09:30:40;;;;;;;;;;;21.00;53.70;;;;;;4884205;29;20420;-85
2021/03/04 09:33:17;;;;;;;;;;;21.00;53.70;;;;;;4878433;29;19935;-87
2021/03/04 09:35:54;;;;;;;;;;;21.10;53.80;;;;;;4869104;29;19942;-87
2021/03/04 09:38:20;;;;;;;;;;;21.10;53.70;;;;;;4860166;29;20297;-86
2021/03/04 09:40:54;;;;;;;;;;;21.10;53.40;;;;;;4868550;29;19979;-88
2021/03/04 09:43:22;;;;;;;;;;;21.10;53.40;;;;;;4863376;29;19935;-85
2021/03/04 09:45:53;;;;;;;;;;;21.10;53.30;;;;;;4859352;29;19943;-82
2021/03/04 09:48:31;;;;;;;;;;;21.10;53.20;;;;;;4857942;29;20023;-83
2021/03/04 09:50:57;;;;;;;;;;;21.20;52.90;;;;;;4845570;29;19984;-82
2021/03/04 09:53:24;;;;;;;;;;;21.10;53.30;;;;;;4873388;29;19928;-82
2021/03/04 09:55:50;;;;;;;;;;;21.20;53.00;;;;;;4861114;29;19938;-82
2021/03/04 09:58:19;;;;;;;;;;;21.10;52.90;;;;;;4865026;29;19927;-82
2021/03/04 10:00:46;;;;;;;;;;;21.10;52.70;;;;;;4885022;29;19966;-84
2021/03/04 10:03:35;;;;;;;;;;;21.20;52.90;;;;;;4862028;29;20760;-83
2021/03/04 10:06:03;;;;;;;;;;;21.20;52.90;;;;;;4886108;29;19974;-84
2021/03/04 10:08:36;;;;;;;;;;;21.20;52.80;;;;;;4875943;29;19974;-83
2021/03/04 10:11:02;;;;;;;;;;;21.30;52.90;;;;;;4884334;29;19927;-83
2021/03/04 10:13:29;;;;;;;;;;;21.30;53.10;;;;;;4879405;29;19935;-82
2021/03/04 10:15:56;;;;;;;;;;;21.30;52.70;;;;;;4888726;29;19938;-82
2021/03/04 10:18:22;;;;;;;;;;;21.30;52.50;;;;;;4874717;29;19959;-83
2021/03/04 10:20:49;;;;;;;;;;;21.40;52.30;;;;;;4886962;29;19938;-85
2021/03/04 10:23:17;;;;;;;;;;;21.40;52.30;;;;;;4884704;29;19959;-82
2021/03/04 10:25:43;;;;;;;;;;;21.40;52.20;;;;;;4879673;29;20308;-83
2021/03/04 10:28:10;;;;;;;;;;;21.40;52.20;;;;;;4866999;29;19967;-82
2021/03/04 10:30:38;;;;;;;;;;;21.40;52.10;;;;;;4878822;29;19939;-82
2021/03/04 10:33:05;;;;;;;;;;;21.50;52.10;;;;;;4884501;29;20389;-82
2021/03/04 10:35:32;;;;;;;;;;;21.50;52.10;;;;;;4862370;29;19934;-81
2021/03/04 10:37:58;;;;;;;;;;;21.60;52.20;;;;;;4878388;29;19932;-82
2021/03/04 10:40:24;;;;;;;;;;;21.60;52.20;;;;;;4881468;29;19927;-82
2021/03/04 10:42:50;;;;;;;;;;;21.60;51.90;;;;;;4889620;29;19933;-81
2021/03/04 10:45:18;;;;;;;;;;;21.60;51.80;;;;;;4886223;29;19927;-81
2021/03/04 10:47:45;;;;;;;;;;;21.70;52.20;;;;;;4891410;29;20389;-82
2021/03/04 10:50:13;;;;;;;;;;;21.70;51.90;;;;;;4877217;29;19942;-82
2021/03/04 10:52:40;;;;;;;;;;;21.60;51.80;;;;;;4888571;29;19931;-83
2021/03/04 10:55:07;;;;;;;;;;;21.70;52.00;;;;;;4869660;29;19935;-81
2021/03/04 10:57:37;;;;;;;;;;;21.70;52.30;;;;;;4888652;29;20027;-84
2021/03/04 11:00:04;;;;;;;;;;;21.70;51.90;;;;;;4881139;29;20027;-84
2021/03/04 11:02:30;;;;;;;;;;;21.80;52.10;;;;;;4870999;29;20459;-83
2021/03/04 11:04:57;;;;;;;;;;;21.80;52.00;;;;;;4869624;29;19952;-83
2021/03/04 11:07:23;;;;;;;;;;;21.80;51.50;;;;;;4876213;29;19987;-85
2021/03/04 11:09:50;;;;;;;;;;;21.80;51.70;;;;;;4890305;29;19932;-85
2021/03/04 11:12:18;;;;;;;;;;;21.70;49.50;;;;;;4884483;29;19945;-85
2021/03/04 11:14:44;;;;;;;;;;;21.60;48.60;;;;;;4875887;29;19934;-88
2021/03/04 11:17:11;;;;;;;;;;;21.50;50.70;;;;;;4872755;29;20295;-85
2021/03/04 11:19:37;;;;;;;;;;;21.60;51.00;;;;;;4874259;29;20364;-93
2021/03/04 11:22:04;;;;;;;;;;;21.70;51.60;;;;;;4850399;29;19927;-88
2021/03/04 11:24:30;;;;;;;;;;;21.80;52.00;;;;;;4864431;29;19923;-88
2021/03/04 11:26:56;;;;;;;;;;;21.80;51.80;;;;;;4884649;29;20607;-95
2021/03/04 11:29:23;;;;;;;;;;;21.90;51.80;;;;;;4871984;29;20260;-87
2021/03/04 11:31:49;;;;;;;;;;;21.90;51.70;;;;;;4882666;29;19938;-88
2021/03/04 11:34:15;;;;;;;;;;;21.90;51.70;;;;;;4876193;29;19975;-87
2021/03/04 11:36:42;;;;;;;;;;;22.00;51.60;;;;;;4867409;29;19935;-88
2021/03/04 11:39:08;;;;;;;;;;;22.00;51.70;;;;;;4876061;29;19931;-90
2021/03/04 11:41:34;;;;;;;;;;;22.00;51.50;;;;;;4850326;29;19934;-90
2021/03/04 11:44:01;;;;;;;;;;;22.10;51.10;;;;;;4873945;29;19982;-88
2021/03/04 11:46:27;;;;;;;;;;;22.00;51.40;;;;;;4875000;29;19981;-90
2021/03/04 11:48:54;;;;;;;;;;;22.00;51.50;;;;;;4868131;29;20398;-87
2021/03/04 11:51:21;;;;;;;;;;;22.10;51.20;;;;;;4867618;29;19939;-91
2021/03/04 11:53:47;;;;;;;;;;;22.10;51.30;;;;;;4857715;29;19935;-88
2021/03/04 11:56:21;;;;;;;;;;;22.10;51.00;;;;;;4886789;29;19986;-89
2021/03/04 11:58:56;;;;;;;;;;;22.10;51.10;;;;;;4867173;29;20549;-90
2021/03/04 12:01:22;;;;;;;;;;;22.10;51.20;;;;;;4882878;29;20014;-87
2021/03/04 12:03:49;;;;;;;;;;;22.10;51.20;;;;;;4884719;29;19968;-86
2021/03/04 12:06:15;;;;;;;;;;;22.20;51.10;;;;;;4887892;29;20553;-89
2021/03/04 12:08:45;;;;;;;;;;;22.10;51.10;;;;;;4885841;29;27731;-89
2021/03/04 12:11:31;;;;;;;;;;;22.20;51.20;;;;;;4867178;29;19978;-88
2021/03/04 12:13:57;;;;;;;;;;;22.20;50.90;;;;;;4881570;29;19937;-85
2021/03/04 12:16:25;;;;;;;;;;;22.00;47.90;;;;;;4883745;29;19954;-84
2021/03/04 12:18:51;;;;;;;;;;;21.80;47.70;;;;;;4882099;29;19935;-84
2021/03/04 12:21:17;;;;;;;;;;;21.70;47.80;;;;;;4887405;29;20784;-85
2021/03/04 12:23:44;;;;;;;;;;;21.50;47.90;;;;;;4887227;29;19928;-84
2021/03/04 12:26:11;;;;;;;;;;;21.50;48.20;;;;;;4890256;29;19941;-84
2021/03/04 12:28:45;;;;;;;;;;;21.40;48.40;;;;;;4882871;29;20629;-84
2021/03/04 12:31:11;;;;;;;;;;;21.30;48.40;;;;;;4881759;29;20396;-85
2021/03/04 12:33:38;;;;;;;;;;;21.30;48.50;;;;;;4885715;29;20004;-85
2021/03/04 12:36:04;;;;;;;;;;;21.20;48.70;;;;;;4887721;29;19935;-84
2021/03/04 12:38:30;;;;;;;;;;;21.10;48.80;;;;;;4888673;29;19927;-85
2021/03/04 12:40:56;;;;;;;;;;;21.10;49.00;;;;;;4873803;29;20412;-84
2021/03/04 12:43:23;;;;;;;;;;;21.10;48.90;;;;;;4899889;29;19927;-85
2021/03/04 12:45:49;;;;;;;;;;;21.00;49.00;;;;;;4887538;29;20023;-89
2021/03/04 12:48:16;;;;;;;;;;;20.90;49.20;;;;;;4904691;29;19928;-90
2021/03/04 12:50:43;;;;;;;;;;;20.90;49.30;;;;;;4888954;29;19961;-93
2021/03/04 12:53:11;;;;;;;;;;;20.90;49.90;;;;;;4892644;29;19935;-95
2021/03/04 12:55:38;;;;;;;;;;;20.90;49.70;;;;;;4891295;29;20003;-96
2021/03/04 12:58:19;;;;;;;;;;;20.80;49.60;;;;;;4891646;29;19947;-94
2021/03/04 13:00:46;;;;;;;;;;;20.80;49.60;;;;;;4871502;29;19945;-95
2021/03/04 13:03:29;;;;;;;;;;;20.80;49.60;;;;;;4865687;29;19942;-96
2021/03/04 13:05:57;;;;;;;;;;;20.80;49.70;;;;;;4880061;29;20906;-95
2021/03/04 13:08:32;;;;;;;;;;;20.70;49.50;;;;;;4877813;29;20381;-94
2021/03/04 13:10:59;;;;;;;;;;;20.70;49.70;;;;;;4895261;29;19943;-96
2021/03/04 13:13:25;;;;;;;;;;;20.60;49.60;;;;;;4870576;29;19927;-93
2021/03/04 13:15:52;;;;;;;;;;;20.50;49.50;;;;;;4860300;29;19936;-96
2021/03/04 13:18:22;;;;;;;;;;;20.60;49.80;;;;;;4857413;29;19967;-96
2021/03/04 13:20:49;;;;;;;;;;;20.50;49.60;;;;;;4857774;29;20066;-96
2021/03/04 13:23:33;;;;;;;;;;;20.40;49.70;;;;;;4879673;29;19946;-96
2021/03/04 13:26:01;;;;;;;;;;;20.40;49.80;;;;;;4870985;29;20030;-94
2021/03/04 13:28:28;;;;;;;;;;;20.40;49.80;;;;;;4857973;29;19935;-96
2021/03/04 13:30:55;;;;;;;;;;;20.40;49.90;;;;;;4872812;29;19928;-96
2021/03/04 13:33:22;;;;;;;;;;;20.30;49.90;;;;;;4881875;29;20392;-96
2021/03/04 13:36:03;;;;;;;;;;;20.40;50.00;;;;;;4877938;29;19939;-95
2021/03/04 13:38:29;;;;;;;;;;;20.40;50.00;;;;;;4881382;29;20051;-96
2021/03/04 13:41:01;;;;;;;;;;;20.30;50.00;;;;;;4868344;29;19915;-96
2021/03/04 13:43:32;;;;;;;;;;;20.30;50.00;;;;;;4876959;29;19938;-95
2021/03/04 13:45:59;;;;;;;;;;;20.30;50.00;;;;;;4878488;29;19927;-96
2021/03/04 13:48:31;;;;;;;;;;;20.30;50.10;;;;;;4865145;29;20148;-95
2021/03/04 13:51:02;;;;;;;;;;;20.20;50.00;;;;;;4886554;29;19967;-92
2021/03/04 13:53:29;;;;;;;;;;;20.20;50.10;;;;;;4871618;29;19967;-92
2021/03/04 13:55:56;;;;;;;;;;;20.20;50.40;;;;;;4876055;29;20396;-86
2021/03/04 13:58:22;;;;;;;;;;;20.20;50.60;;;;;;4855949;29;19928;-93
2021/03/04 14:00:49;;;;;;;;;;;20.20;50.90;;;;;;4890404;29;20014;-84
2021/03/04 14:03:16;;;;;;;;;;;20.20;51.00;;;;;;4881164;29;19934;-88
2021/03/04 14:05:42;;;;;;;;;;;20.30;53.50;;;;;;4882793;29;20018;-84
2021/03/04 14:08:09;;;;;;;;;;;20.20;52.30;;;;;;4880428;29;19939;-88
2021/03/04 14:10:35;;;;;;;;;;;20.10;51.20;;;;;;4884373;29;20487;-85
2021/03/04 14:13:01;;;;;;;;;;;20.20;50.90;;;;;;4882320;29;19932;-88
2021/03/04 14:15:28;;;;;;;;;;;20.10;49.40;;;;;;4881824;29;19975;-91
2021/03/04 14:17:55;;;;;;;;;;;20.10;50.00;;;;;;4887041;29;20596;-91
2021/03/04 14:20:21;;;;;;;;;;;20.10;49.10;;;;;;4891143;29;20537;-89
2021/03/04 14:22:53;;;;;;;;;;;20.20;49.70;;;;;;4889449;29;19928;-88
2021/03/04 14:25:19;;;;;;;;;;;20.30;49.10;;;;;;4885644;29;19927;-85
2021/03/04 14:28:04;;;;;;;;;;;20.30;49.30;;;;;;4883458;29;20392;-89
2021/03/04 14:30:30;;;;;;;;;;;20.40;49.10;;;;;;4888965;29;19927;-95
2021/03/04 14:32:57;;;;;;;;;;;20.40;48.80;;;;;;4885137;29;19952;-88
2021/03/04 14:35:23;;;;;;;;;;;20.30;48.40;;;;;;4879837;29;19932;-84
2021/03/04 14:37:50;;;;;;;;;;;20.40;48.70;;;;;;4890389;29;20409;-85
2021/03/04 14:40:18;;;;;;;;;;;20.40;48.50;;;;;;4901251;29;19968;-85